sensor_id;sensor_type;location;lat;lon;timestamp;P1;durP1;ratioP1;P2;durP2;ratioP2
83121;SDS011;73002;47.238;9.006;2024-03-23T07:32:26;8.73;;;4.97;;
83121;SDS011;73002;47.238;9.006;2024-03-23T07:34:55;6.72;;;5.00;;
83121;SDS011;73002;47.238;9.006;2024-03-23T07:37:23;7.85;;;4.60;;
83121;SDS011;73002;47.238;9.006;2024-03-23T07:39:48;6.65;;;4.70;;
83121;SDS011;73002;47.238;9.006;2024-03-23T08:18:26;6.53;;;5.13;;
83121;SDS011;73002;47.238;9.006;2024-03-23T08:21:00;6.80;;;5.10;;
83121;SDS011;73002;47.238;9.006;2024-03-23T08:23:28;5.57;;;4.70;;
83121;SDS011;73002;47.238;9.006;2024-03-23T08:25:58;5.68;;;4.50;;
83121;SDS011;73002;47.238;9.006;2024-03-23T08:28:24;6.47;;;4.23;;
83121;SDS011;73002;47.238;9.006;2024-03-23T08:30:50;6.00;;;3.90;;
83121;SDS011;73002;47.238;9.006;2024-03-23T08:33:16;4.50;;;4.10;;
83121;SDS011;73002;47.238;9.006;2024-03-23T08:35:42;4.97;;;3.78;;
83121;SDS011;73002;47.238;9.006;2024-03-23T08:38:09;4.38;;;3.80;;
83121;SDS011;73002;47.238;9.006;2024-03-23T08:40:38;2.95;;;2.15;;
83121;SDS011;73002;47.238;9.006;2024-03-23T08:43:06;3.05;;;1.10;;
83121;SDS011;73002;47.238;9.006;2024-03-23T08:45:31;0.60;;;0.50;;
83121;SDS011;73002;47.238;9.006;2024-03-23T08:47:57;1.67;;;0.60;;
83121;SDS011;73002;47.238;9.006;2024-03-23T08:50:22;0.73;;;0.47;;
83121;SDS011;73002;47.238;9.006;2024-03-23T08:52:50;0.57;;;0.57;;
83121;SDS011;73002;47.238;9.006;2024-03-23T15:00:02;2.75;;;0.70;;
83121;SDS011;73002;47.238;9.006;2024-03-23T15:02:30;3.05;;;1.05;;
83121;SDS011;73002;47.238;9.006;2024-03-23T15:04:56;3.42;;;0.95;;
83121;SDS011;73002;47.238;9.006;2024-03-23T15:07:22;5.47;;;0.80;;
83121;SDS011;73002;47.238;9.006;2024-03-23T15:09:48;3.15;;;0.70;;
83121;SDS011;73002;47.238;9.006;2024-03-23T15:12:16;2.60;;;0.88;;
83121;SDS011;73002;47.238;9.006;2024-03-23T15:14:43;1.88;;;0.80;;
83121;SDS011;73002;47.238;9.006;2024-03-23T15:17:09;2.45;;;1.00;;
83121;SDS011;73002;47.238;9.006;2024-03-23T15:22:09;2.95;;;1.00;;
83121;SDS011;73002;47.238;9.006;2024-03-23T15:24:35;4.20;;;0.90;;
83121;SDS011;73002;47.238;9.006;2024-03-23T15:27:04;3.60;;;0.77;;
83121;SDS011;73002;47.238;9.006;2024-03-23T15:29:32;4.03;;;0.95;;
83121;SDS011;73002;47.238;9.006;2024-03-23T15:31:58;2.13;;;0.90;;
83121;SDS011;73002;47.238;9.006;2024-03-23T15:34:23;1.95;;;0.80;;
83121;SDS011;73002;47.238;9.006;2024-03-23T15:36:49;2.22;;;0.70;;
83121;SDS011;73002;47.238;9.006;2024-03-23T15:39:16;2.15;;;0.73;;
83121;SDS011;73002;47.238;9.006;2024-03-23T15:41:43;1.77;;;0.75;;
83121;SDS011;73002;47.238;9.006;2024-03-23T15:44:13;2.85;;;0.90;;
83121;SDS011;73002;47.238;9.006;2024-03-23T15:46:39;4.13;;;0.88;;
83121;SDS011;73002;47.238;9.006;2024-03-23T15:49:05;3.42;;;1.17;;
83121;SDS011;73002;47.238;9.006;2024-03-23T15:51:31;2.08;;;0.93;;
83121;SDS011;73002;47.238;9.006;2024-03-23T15:54:02;3.72;;;0.95;;
83121;SDS011;73002;47.238;9.006;2024-03-23T15:56:31;5.03;;;1.05;;
83121;SDS011;73002;47.238;9.006;2024-03-23T15:58:56;3.00;;;0.90;;
83121;SDS011;73002;47.238;9.006;2024-03-23T16:01:29;5.30;;;1.10;;
83121;SDS011;73002;47.238;9.006;2024-03-23T16:03:55;3.33;;;1.20;;
83121;SDS011;73002;47.238;9.006;2024-03-23T16:06:20;2.90;;;1.00;;
83121;SDS011;73002;47.238;9.006;2024-03-23T16:08:46;5.18;;;1.20;;
83121;SDS011;73002;47.238;9.006;2024-03-23T16:11:11;3.10;;;1.00;;
83121;SDS011;73002;47.238;9.006;2024-03-23T16:13:36;2.72;;;0.90;;
83121;SDS011;73002;47.238;9.006;2024-03-23T16:16:08;3.92;;;1.40;;
83121;SDS011;73002;47.238;9.006;2024-03-23T16:18:35;2.35;;;1.02;;
83121;SDS011;73002;47.238;9.006;2024-03-23T16:21:02;3.38;;;0.90;;
83121;SDS011;73002;47.238;9.006;2024-03-23T16:23:29;2.50;;;1.33;;
83121;SDS011;73002;47.238;9.006;2024-03-23T16:25:55;3.67;;;1.23;;
83121;SDS011;73002;47.238;9.006;2024-03-23T16:28:28;3.90;;;1.20;;
83121;SDS011;73002;47.238;9.006;2024-03-23T16:30:58;2.97;;;0.88;;
83121;SDS011;73002;47.238;9.006;2024-03-23T16:33:31;4.30;;;0.93;;
83121;SDS011;73002;47.238;9.006;2024-03-23T16:36:01;3.70;;;1.02;;
83121;SDS011;73002;47.238;9.006;2024-03-23T16:38:31;3.58;;;0.90;;
83121;SDS011;73002;47.238;9.006;2024-03-23T16:41:00;5.35;;;1.08;;
83121;SDS011;73002;47.238;9.006;2024-03-23T16:43:32;2.08;;;1.00;;
83121;SDS011;73002;47.238;9.006;2024-03-23T16:46:00;3.33;;;1.15;;
83121;SDS011;73002;47.238;9.006;2024-03-23T16:48:28;2.67;;;0.80;;
83121;SDS011;73002;47.238;9.006;2024-03-23T16:51:01;2.45;;;0.90;;
83121;SDS011;73002;47.238;9.006;2024-03-23T16:53:30;3.75;;;1.00;;
83121;SDS011;73002;47.238;9.006;2024-03-23T16:56:00;3.72;;;0.98;;
83121;SDS011;73002;47.238;9.006;2024-03-23T16:58:28;3.35;;;1.10;;
83121;SDS011;73002;47.238;9.006;2024-03-23T17:01:04;1.70;;;0.80;;
83121;SDS011;73002;47.238;9.006;2024-03-23T17:03:35;2.60;;;0.90;;
83121;SDS011;73002;47.238;9.006;2024-03-23T17:06:04;5.70;;;0.90;;
83121;SDS011;73002;47.238;9.006;2024-03-23T17:08:31;2.05;;;0.90;;
83121;SDS011;73002;47.238;9.006;2024-03-23T17:10:57;2.75;;;1.00;;
83121;SDS011;73002;47.238;9.006;2024-03-23T17:13:24;3.60;;;0.90;;
83121;SDS011;73002;47.238;9.006;2024-03-23T17:15:50;2.78;;;0.85;;
83121;SDS011;73002;47.238;9.006;2024-03-23T17:18:15;4.88;;;1.05;;
83121;SDS011;73002;47.238;9.006;2024-03-23T17:20:41;2.80;;;1.15;;
83121;SDS011;73002;47.238;9.006;2024-03-23T17:23:06;3.92;;;1.13;;
83121;SDS011;73002;47.238;9.006;2024-03-23T17:25:32;5.93;;;3.75;;
83121;SDS011;73002;47.238;9.006;2024-03-23T17:27:57;6.88;;;4.00;;
83121;SDS011;73002;47.238;9.006;2024-03-23T17:30:23;5.53;;;2.38;;
83121;SDS011;73002;47.238;9.006;2024-03-23T17:32:48;5.15;;;2.40;;
83121;SDS011;73002;47.238;9.006;2024-03-23T17:35:14;5.75;;;1.35;;
83121;SDS011;73002;47.238;9.006;2024-03-23T17:37:40;6.22;;;1.20;;
83121;SDS011;73002;47.238;9.006;2024-03-23T17:40:07;4.00;;;0.88;;
83121;SDS011;73002;47.238;9.006;2024-03-23T17:42:36;4.63;;;1.25;;
83121;SDS011;73002;47.238;9.006;2024-03-23T17:47:39;3.97;;;1.20;;
83121;SDS011;73002;47.238;9.006;2024-03-23T17:50:05;4.25;;;1.20;;
83121;SDS011;73002;47.238;9.006;2024-03-23T17:52:32;4.70;;;1.15;;
83121;SDS011;73002;47.238;9.006;2024-03-23T17:54:58;2.13;;;0.90;;
83121;SDS011;73002;47.238;9.006;2024-03-23T17:57:24;5.38;;;2.10;;
83121;SDS011;73002;47.238;9.006;2024-03-23T17:59:50;7.18;;;3.72;;
83121;SDS011;73002;47.238;9.006;2024-03-23T18:02:19;4.05;;;2.92;;
83121;SDS011;73002;47.238;9.006;2024-03-23T18:04:45;8.07;;;2.83;;
83121;SDS011;73002;47.238;9.006;2024-03-23T18:07:11;3.88;;;1.40;;
83121;SDS011;73002;47.238;9.006;2024-03-23T18:09:36;3.45;;;1.17;;
83121;SDS011;73002;47.238;9.006;2024-03-23T18:12:02;3.67;;;1.20;;
83121;SDS011;73002;47.238;9.006;2024-03-23T18:14:29;4.03;;;1.27;;
83121;SDS011;73002;47.238;9.006;2024-03-23T18:16:55;3.80;;;1.52;;
83121;SDS011;73002;47.238;9.006;2024-03-23T18:19:20;1.65;;;1.00;;
83121;SDS011;73002;47.238;9.006;2024-03-23T18:21:46;5.47;;;2.00;;
83121;SDS011;73002;47.238;9.006;2024-03-23T18:24:11;4.70;;;1.60;;
83121;SDS011;73002;47.238;9.006;2024-03-23T18:26:37;5.68;;;2.63;;
83121;SDS011;73002;47.238;9.006;2024-03-23T18:29:02;8.02;;;5.32;;
83121;SDS011;73002;47.238;9.006;2024-03-23T18:31:28;10.90;;;7.15;;
83121;SDS011;73002;47.238;9.006;2024-03-23T18:33:54;4.85;;;3.70;;
83121;SDS011;73002;47.238;9.006;2024-03-23T18:36:22;3.90;;;1.63;;
83121;SDS011;73002;47.238;9.006;2024-03-23T18:38:48;5.82;;;2.55;;
83121;SDS011;73002;47.238;9.006;2024-03-23T18:41:13;3.83;;;1.20;;
83121;SDS011;73002;47.238;9.006;2024-03-23T18:43:39;3.67;;;0.90;;
83121;SDS011;73002;47.238;9.006;2024-03-23T18:46:04;8.18;;;1.27;;
83121;SDS011;73002;47.238;9.006;2024-03-23T18:48:30;5.35;;;1.00;;
83121;SDS011;73002;47.238;9.006;2024-03-23T18:50:56;2.97;;;0.90;;
83121;SDS011;73002;47.238;9.006;2024-03-23T18:53:22;2.65;;;1.00;;
83121;SDS011;73002;47.238;9.006;2024-03-23T18:55:54;4.03;;;0.98;;
83121;SDS011;73002;47.238;9.006;2024-03-23T18:58:21;3.33;;;1.20;;
83121;SDS011;73002;47.238;9.006;2024-03-23T19:00:46;4.05;;;1.10;;
83121;SDS011;73002;47.238;9.006;2024-03-23T19:03:12;1.95;;;0.75;;
83121;SDS011;73002;47.238;9.006;2024-03-23T19:05:38;3.22;;;0.80;;
83121;SDS011;73002;47.238;9.006;2024-03-23T19:08:04;2.72;;;0.80;;
83121;SDS011;73002;47.238;9.006;2024-03-23T19:10:32;1.15;;;0.60;;
83121;SDS011;73002;47.238;9.006;2024-03-23T19:12:57;0.60;;;0.47;;
83121;SDS011;73002;47.238;9.006;2024-03-23T19:15:25;1.38;;;0.40;;
83121;SDS011;73002;47.238;9.006;2024-03-23T19:17:51;1.80;;;0.50;;
83121;SDS011;73002;47.238;9.006;2024-03-23T19:20:17;1.42;;;0.60;;
83121;SDS011;73002;47.238;9.006;2024-03-23T19:22:42;0.75;;;0.50;;
83121;SDS011;73002;47.238;9.006;2024-03-23T19:25:08;1.67;;;0.50;;
83121;SDS011;73002;47.238;9.006;2024-03-23T19:27:35;2.08;;;1.10;;
83121;SDS011;73002;47.238;9.006;2024-03-23T19:30:04;3.15;;;1.52;;
83121;SDS011;73002;47.238;9.006;2024-03-23T19:32:30;1.85;;;0.68;;
83121;SDS011;73002;47.238;9.006;2024-03-23T19:34:58;2.55;;;0.70;;
83121;SDS011;73002;47.238;9.006;2024-03-23T19:37:24;2.40;;;0.63;;
83121;SDS011;73002;47.238;9.006;2024-03-23T19:39:49;2.17;;;1.40;;
83121;SDS011;73002;47.238;9.006;2024-03-23T19:42:15;2.53;;;1.90;;
83121;SDS011;73002;47.238;9.006;2024-03-23T19:44:43;2.80;;;0.75;;
83121;SDS011;73002;47.238;9.006;2024-03-23T19:47:09;2.20;;;0.60;;
83121;SDS011;73002;47.238;9.006;2024-03-23T19:49:34;1.75;;;0.43;;
83121;SDS011;73002;47.238;9.006;2024-03-23T19:52:01;1.63;;;0.75;;
83121;SDS011;73002;47.238;9.006;2024-03-23T19:54:28;2.80;;;0.68;;
83121;SDS011;73002;47.238;9.006;2024-03-23T19:56:55;2.30;;;0.70;;
83121;SDS011;73002;47.238;9.006;2024-03-23T19:59:20;1.05;;;0.70;;
83121;SDS011;73002;47.238;9.006;2024-03-23T20:01:46;0.82;;;0.50;;
83121;SDS011;73002;47.238;9.006;2024-03-23T20:04:12;0.60;;;0.60;;
83121;SDS011;73002;47.238;9.006;2024-03-23T20:06:37;0.85;;;0.60;;
83121;SDS011;73002;47.238;9.006;2024-03-23T20:09:07;1.65;;;0.60;;
83121;SDS011;73002;47.238;9.006;2024-03-23T20:11:32;2.35;;;0.90;;
83121;SDS011;73002;47.238;9.006;2024-03-23T20:13:58;1.80;;;0.88;;
83121;SDS011;73002;47.238;9.006;2024-03-23T20:16:23;2.60;;;0.85;;
83121;SDS011;73002;47.238;9.006;2024-03-23T20:18:55;1.38;;;0.70;;
83121;SDS011;73002;47.238;9.006;2024-03-23T20:21:20;1.15;;;0.68;;
83121;SDS011;73002;47.238;9.006;2024-03-23T20:23:46;1.58;;;0.77;;
83121;SDS011;73002;47.238;9.006;2024-03-23T20:26:13;2.03;;;0.70;;
83121;SDS011;73002;47.238;9.006;2024-03-23T20:28:40;2.15;;;0.80;;
83121;SDS011;73002;47.238;9.006;2024-03-23T20:31:05;1.38;;;0.90;;
83121;SDS011;73002;47.238;9.006;2024-03-23T20:33:33;1.00;;;0.80;;
83121;SDS011;73002;47.238;9.006;2024-03-23T20:36:00;1.17;;;0.80;;
83121;SDS011;73002;47.238;9.006;2024-03-23T20:38:26;1.15;;;0.68;;
83121;SDS011;73002;47.238;9.006;2024-03-23T20:40:52;1.15;;;0.85;;
83121;SDS011;73002;47.238;9.006;2024-03-23T20:43:22;2.03;;;0.70;;
83121;SDS011;73002;47.238;9.006;2024-03-23T20:45:57;2.95;;;1.13;;
83121;SDS011;73002;47.238;9.006;2024-03-23T20:48:26;1.23;;;0.80;;
83121;SDS011;73002;47.238;9.006;2024-03-23T20:51:02;0.80;;;0.73;;
83121;SDS011;73002;47.238;9.006;2024-03-23T20:53:28;1.55;;;0.88;;
83121;SDS011;73002;47.238;9.006;2024-03-23T20:55:54;2.45;;;0.70;;
83121;SDS011;73002;47.238;9.006;2024-03-23T20:58:24;1.60;;;0.80;;
83121;SDS011;73002;47.238;9.006;2024-03-23T21:03:25;1.77;;;0.93;;
83121;SDS011;73002;47.238;9.006;2024-03-23T21:05:51;0.90;;;0.65;;
83121;SDS011;73002;47.238;9.006;2024-03-23T21:08:17;1.88;;;0.68;;
83121;SDS011;73002;47.238;9.006;2024-03-23T21:10:48;2.55;;;0.80;;
83121;SDS011;73002;47.238;9.006;2024-03-23T21:13:14;3.15;;;0.90;;
83121;SDS011;73002;47.238;9.006;2024-03-23T21:15:45;2.55;;;0.80;;
83121;SDS011;73002;47.238;9.006;2024-03-23T21:20:36;1.35;;;0.70;;
83121;SDS011;73002;47.238;9.006;2024-03-23T21:23:02;2.58;;;0.80;;
83121;SDS011;73002;47.238;9.006;2024-03-23T21:25:27;2.10;;;0.60;;
83121;SDS011;73002;47.238;9.006;2024-03-23T21:27:57;3.30;;;1.00;;
83121;SDS011;73002;47.238;9.006;2024-03-23T21:30:23;1.60;;;0.80;;
83121;SDS011;73002;47.238;9.006;2024-03-23T21:32:48;4.38;;;1.10;;
83121;SDS011;73002;47.238;9.006;2024-03-23T21:35:14;3.17;;;1.02;;
83121;SDS011;73002;47.238;9.006;2024-03-23T21:37:39;2.05;;;0.80;;
83121;SDS011;73002;47.238;9.006;2024-03-23T21:40:05;1.85;;;0.80;;
83121;SDS011;73002;47.238;9.006;2024-03-23T21:42:34;1.05;;;0.70;;
83121;SDS011;73002;47.238;9.006;2024-03-23T21:45:00;0.93;;;0.70;;
83121;SDS011;73002;47.238;9.006;2024-03-23T21:47:25;1.40;;;0.80;;
83121;SDS011;73002;47.238;9.006;2024-03-23T21:49:51;1.35;;;0.63;;
83121;SDS011;73002;47.238;9.006;2024-03-23T21:52:16;1.08;;;0.60;;
83121;SDS011;73002;47.238;9.006;2024-03-23T21:54:42;2.15;;;0.70;;
83121;SDS011;73002;47.238;9.006;2024-03-23T21:57:07;2.42;;;0.70;;
83121;SDS011;73002;47.238;9.006;2024-03-23T21:59:33;1.13;;;0.80;;
83121;SDS011;73002;47.238;9.006;2024-03-23T22:01:58;0.57;;;0.57;;
83121;SDS011;73002;47.238;9.006;2024-03-23T22:04:23;1.60;;;0.70;;
83121;SDS011;73002;47.238;9.006;2024-03-23T22:06:52;1.65;;;0.88;;
83121;SDS011;73002;47.238;9.006;2024-03-23T22:09:18;1.33;;;0.60;;
83121;SDS011;73002;47.238;9.006;2024-03-23T22:11:43;1.17;;;0.50;;
83121;SDS011;73002;47.238;9.006;2024-03-23T22:14:09;2.70;;;0.85;;
83121;SDS011;73002;47.238;9.006;2024-03-23T22:16:34;1.00;;;0.55;;
83121;SDS011;73002;47.238;9.006;2024-03-23T22:19:01;1.48;;;0.60;;
83121;SDS011;73002;47.238;9.006;2024-03-23T22:21:27;1.10;;;0.70;;
83121;SDS011;73002;47.238;9.006;2024-03-23T22:23:55;0.70;;;0.70;;
83121;SDS011;73002;47.238;9.006;2024-03-23T22:28:46;1.55;;;0.80;;
83121;SDS011;73002;47.238;9.006;2024-03-23T22:31:12;1.73;;;0.70;;
83121;SDS011;73002;47.238;9.006;2024-03-23T22:33:37;1.33;;;0.70;;
83121;SDS011;73002;47.238;9.006;2024-03-23T22:36:03;1.85;;;0.80;;
83121;SDS011;73002;47.238;9.006;2024-03-23T22:38:29;1.23;;;0.80;;
83121;SDS011;73002;47.238;9.006;2024-03-23T22:40:55;1.42;;;0.70;;
83121;SDS011;73002;47.238;9.006;2024-03-23T22:43:22;0.93;;;0.70;;
83121;SDS011;73002;47.238;9.006;2024-03-23T22:45:58;0.50;;;0.50;;
83121;SDS011;73002;47.238;9.006;2024-03-23T22:48:29;1.10;;;0.68;;
83121;SDS011;73002;47.238;9.006;2024-03-23T22:50:57;0.90;;;0.55;;
83121;SDS011;73002;47.238;9.006;2024-03-23T22:53:24;1.15;;;0.50;;
83121;SDS011;73002;47.238;9.006;2024-03-23T22:55:50;0.82;;;0.50;;
83121;SDS011;73002;47.238;9.006;2024-03-23T22:58:17;0.40;;;0.40;;
83121;SDS011;73002;47.238;9.006;2024-03-23T23:00:43;1.25;;;0.70;;
83121;SDS011;73002;47.238;9.006;2024-03-23T23:03:14;0.80;;;0.60;;
83121;SDS011;73002;47.238;9.006;2024-03-23T23:05:40;1.75;;;0.60;;
83121;SDS011;73002;47.238;9.006;2024-03-23T23:08:07;1.77;;;0.70;;
83121;SDS011;73002;47.238;9.006;2024-03-23T23:10:32;1.63;;;0.50;;
83121;SDS011;73002;47.238;9.006;2024-03-23T23:12:58;0.88;;;0.50;;
83121;SDS011;73002;47.238;9.006;2024-03-23T23:15:24;1.98;;;0.65;;
83121;SDS011;73002;47.238;9.006;2024-03-23T23:17:49;0.50;;;0.50;;
83121;SDS011;73002;47.238;9.006;2024-03-23T23:20:15;0.60;;;0.50;;
83121;SDS011;73002;47.238;9.006;2024-03-23T23:22:41;0.45;;;0.45;;
83121;SDS011;73002;47.238;9.006;2024-03-23T23:25:10;0.70;;;0.50;;
83121;SDS011;73002;47.238;9.006;2024-03-23T23:27:36;1.20;;;0.60;;
83121;SDS011;73002;47.238;9.006;2024-03-23T23:30:05;0.57;;;0.57;;
83121;SDS011;73002;47.238;9.006;2024-03-23T23:32:31;0.60;;;0.60;;
83121;SDS011;73002;47.238;9.006;2024-03-23T23:34:58;0.80;;;0.50;;
83121;SDS011;73002;47.238;9.006;2024-03-23T23:37:24;0.77;;;0.70;;
83121;SDS011;73002;47.238;9.006;2024-03-23T23:39:50;1.20;;;0.80;;
83121;SDS011;73002;47.238;9.006;2024-03-23T23:42:15;0.93;;;0.68;;
83121;SDS011;73002;47.238;9.006;2024-03-23T23:44:41;1.17;;;0.60;;
83121;SDS011;73002;47.238;9.006;2024-03-23T23:47:06;0.90;;;0.50;;
83121;SDS011;73002;47.238;9.006;2024-03-23T23:49:32;1.70;;;1.15;;
83121;SDS011;73002;47.238;9.006;2024-03-23T23:51:57;3.70;;;1.20;;
83121;SDS011;73002;47.238;9.006;2024-03-23T23:54:22;1.42;;;0.65;;
83121;SDS011;73002;47.238;9.006;2024-03-23T23:56:51;0.70;;;0.47;;
83121;SDS011;73002;47.238;9.006;2024-03-23T23:59:16;0.70;;;0.50;;
